sensor_id;sensor_type;location;lat;lon;timestamp;pressure;altitude;pressure_sealevel;temperature;humidity
5413;BME280;2729;50.056;8.678;2023-05-03T00:01:00;101366.19;;;8.89;100.00
5413;BME280;2729;50.056;8.678;2023-05-03T00:03:27;101365.31;;;9.01;100.00
5413;BME280;2729;50.056;8.678;2023-05-03T00:05:53;101369.66;;;8.96;100.00
5413;BME280;2729;50.056;8.678;2023-05-03T00:08:19;101373.13;;;8.92;100.00
5413;BME280;2729;50.056;8.678;2023-05-03T00:10:46;101378.34;;;8.86;100.00
5413;BME280;2729;50.056;8.678;2023-05-03T00:13:12;101372.25;;;8.87;100.00
5413;BME280;2729;50.056;8.678;2023-05-03T00:15:38;101367.91;;;8.66;100.00
5413;BME280;2729;50.056;8.678;2023-05-03T00:18:04;101361.84;;;8.70;100.00
5413;BME280;2729;50.056;8.678;2023-05-03T00:20:30;101366.19;;;8.74;100.00
5413;BME280;2729;50.056;8.678;2023-05-03T00:22:56;101358.38;;;8.69;100.00
5413;BME280;2729;50.056;8.678;2023-05-03T00:25:22;101360.97;;;8.68;100.00
5413;BME280;2729;50.056;8.678;2023-05-03T00:27:48;101360.09;;;8.74;100.00
5413;BME280;2729;50.056;8.678;2023-05-03T00:30:14;101350.56;;;8.73;100.00
5413;BME280;2729;50.056;8.678;2023-05-03T00:32:41;101358.38;;;8.69;100.00
5413;BME280;2729;50.056;8.678;2023-05-03T00:35:07;101352.28;;;8.55;100.00
5413;BME280;2729;50.056;8.678;2023-05-03T00:37:33;101348.81;;;8.36;100.00
5413;BME280;2729;50.056;8.678;2023-05-03T00:39:59;101352.22;;;8.29;100.00
5413;BME280;2729;50.056;8.678;2023-05-03T00:42:25;101341.88;;;8.43;100.00
5413;BME280;2729;50.056;8.678;2023-05-03T00:44:50;101340.13;;;8.33;100.00
5413;BME280;2729;50.056;8.678;2023-05-03T00:47:16;101340.09;;;8.27;100.00
5413;BME280;2729;50.056;8.678;2023-05-03T00:49:42;101334.06;;;8.40;100.00
5413;BME280;2729;50.056;8.678;2023-05-03T00:52:09;101334.94;;;8.33;100.00
5413;BME280;2729;50.056;8.678;2023-05-03T00:54:35;101332.28;;;8.27;100.00
5413;BME280;2729;50.056;8.678;2023-05-03T00:57:03;101329.66;;;8.15;100.00
5413;BME280;2729;50.056;8.678;2023-05-03T00:59:31;101321.00;;;8.22;100.00
5413;BME280;2729;50.056;8.678;2023-05-03T01:01:57;101318.41;;;8.13;100.00
5413;BME280;2729;50.056;8.678;2023-05-03T01:04:23;101328.78;;;8.10;100.00
5413;BME280;2729;50.056;8.678;2023-05-03T01:07:07;101331.41;;;8.13;100.00
5413;BME280;2729;50.056;8.678;2023-05-03T01:09:52;101329.66;;;8.05;100.00
5413;BME280;2729;50.056;8.678;2023-05-03T01:15:12;101327.84;;;7.85;100.00
5413;BME280;2729;50.056;8.678;2023-05-03T01:17:46;101328.66;;;7.76;100.00
5413;BME280;2729;50.056;8.678;2023-05-03T01:20:17;101323.44;;;7.73;100.00
5413;BME280;2729;50.056;8.678;2023-05-03T01:23:00;101327.72;;;7.60;100.00
5413;BME280;2729;50.056;8.678;2023-05-03T01:25:29;101320.84;;;7.73;100.00
5413;BME280;2729;50.056;8.678;2023-05-03T01:27:55;101323.44;;;7.70;100.00
5413;BME280;2729;50.056;8.678;2023-05-03T01:30:25;101311.31;;;7.64;100.00
5413;BME280;2729;50.056;8.678;2023-05-03T01:33:04;101317.44;;;7.80;100.00
5413;BME280;2729;50.056;8.678;2023-05-03T01:35:40;101307.06;;;7.88;100.00
5413;BME280;2729;50.056;8.678;2023-05-03T01:38:09;101305.38;;;8.06;100.00
5413;BME280;2729;50.056;8.678;2023-05-03T01:40:50;101311.47;;;8.15;100.00
5413;BME280;2729;50.056;8.678;2023-05-03T01:43:18;101313.19;;;8.03;100.00
5413;BME280;2729;50.056;8.678;2023-05-03T01:45:46;101321.81;;;7.87;100.00
5413;BME280;2729;50.056;8.678;2023-05-03T01:48:14;101313.13;;;7.88;100.00
5413;BME280;2729;50.056;8.678;2023-05-03T01:50:41;101306.16;;;7.77;100.00
5413;BME280;2729;50.056;8.678;2023-05-03T01:53:07;101305.28;;;7.79;100.00
5413;BME280;2729;50.056;8.678;2023-05-03T01:55:33;101310.47;;;7.71;100.00
5413;BME280;2729;50.056;8.678;2023-05-03T01:57:58;101308.72;;;7.66;100.00
5413;BME280;2729;50.056;8.678;2023-05-03T02:00:25;101319.84;;;7.40;100.00
5413;BME280;2729;50.056;8.678;2023-05-03T02:02:52;101308.66;;;7.51;100.00
5413;BME280;2729;50.056;8.678;2023-05-03T02:05:18;101304.16;;;7.19;100.00
5413;BME280;2729;50.056;8.678;2023-05-03T02:07:44;101320.69;;;7.35;100.00
5413;BME280;2729;50.056;8.678;2023-05-03T02:10:10;101327.59;;;7.31;100.00
5413;BME280;2729;50.056;8.678;2023-05-03T02:12:43;101321.44;;;7.13;100.00
5413;BME280;2729;50.056;8.678;2023-05-03T02:15:10;101322.38;;;7.27;100.00
5413;BME280;2729;50.056;8.678;2023-05-03T02:17:36;101318.94;;;7.31;100.00
5413;BME280;2729;50.056;8.678;2023-05-03T02:20:04;101327.59;;;7.28;100.00
5413;BME280;2729;50.056;8.678;2023-05-03T02:22:31;101331.91;;;7.31;100.00
5413;BME280;2729;50.056;8.678;2023-05-03T02:24:57;101323.97;;;7.03;100.00
5413;BME280;2729;50.056;8.678;2023-05-03T02:27:24;101331.81;;;7.14;100.00
5413;BME280;2729;50.056;8.678;2023-05-03T02:29:50;101333.50;;;7.04;100.00
5413;BME280;2729;50.056;8.678;2023-05-03T02:32:16;101342.97;;;6.96;100.00
5413;BME280;2729;50.056;8.678;2023-05-03T02:34:46;101331.78;;;7.09;100.00
5413;BME280;2729;50.056;8.678;2023-05-03T02:37:14;101346.44;;;7.00;100.00
5413;BME280;2729;50.056;8.678;2023-05-03T02:39:40;101341.13;;;6.85;100.00
5413;BME280;2729;50.056;8.678;2023-05-03T02:42:06;101338.63;;;6.94;100.00
5413;BME280;2729;50.056;8.678;2023-05-03T02:44:32;101342.94;;;6.93;100.00
5413;BME280;2729;50.056;8.678;2023-05-03T02:46:58;101347.97;;;6.72;100.00
5413;BME280;2729;50.056;8.678;2023-05-03T02:49:25;101339.16;;;6.55;100.00
5413;BME280;2729;50.056;8.678;2023-05-03T02:51:51;101341.09;;;6.77;100.00
5413;BME280;2729;50.056;8.678;2023-05-03T02:54:17;101344.56;;;6.79;100.00
5413;BME280;2729;50.056;8.678;2023-05-03T02:56:44;101349.72;;;6.77;100.00
5413;BME280;2729;50.056;8.678;2023-05-03T02:59:10;101341.09;;;6.80;100.00
5413;BME280;2729;50.056;8.678;2023-05-03T03:01:37;101342.00;;;6.82;100.00
5413;BME280;2729;50.056;8.678;2023-05-03T03:04:05;101334.28;;;6.91;100.00
5413;BME280;2729;50.056;8.678;2023-05-03T03:06:31;101336.84;;;6.88;100.00
5413;BME280;2729;50.056;8.678;2023-05-03T03:08:58;101336.81;;;6.84;100.00
5413;BME280;2729;50.056;8.678;2023-05-03T03:11:24;101335.84;;;6.71;100.00
5413;BME280;2729;50.056;8.678;2023-05-03T03:13:50;101345.38;;;6.73;100.00
5413;BME280;2729;50.056;8.678;2023-05-03T03:16:16;101343.72;;;6.82;100.00
5413;BME280;2729;50.056;8.678;2023-05-03T03:18:42;101337.63;;;6.76;100.00
5413;BME280;2729;50.056;8.678;2023-05-03T03:21:08;101335.03;;;6.76;100.00
5413;BME280;2729;50.056;8.678;2023-05-03T03:23:35;101336.66;;;6.64;100.00
5413;BME280;2729;50.056;8.678;2023-05-03T03:26:01;101334.13;;;6.73;100.00
5413;BME280;2729;50.056;8.678;2023-05-03T03:28:28;101343.66;;;6.75;100.00
5413;BME280;2729;50.056;8.678;2023-05-03T03:30:57;101339.28;;;6.68;100.00
5413;BME280;2729;50.056;8.678;2023-05-03T03:33:24;101334.81;;;6.49;100.00
5413;BME280;2729;50.056;8.678;2023-05-03T03:35:52;101334.81;;;6.49;100.00
5413;BME280;2729;50.056;8.678;2023-05-03T03:38:21;101331.44;;;6.59;100.00
5413;BME280;2729;50.056;8.678;2023-05-03T03:40:54;101327.03;;;6.52;100.00
5413;BME280;2729;50.056;8.678;2023-05-03T03:43:20;101333.22;;;6.65;100.00
5413;BME280;2729;50.056;8.678;2023-05-03T03:45:47;101332.38;;;6.70;100.00
5413;BME280;2729;50.056;8.678;2023-05-03T03:48:14;101329.78;;;6.69;100.00
5413;BME280;2729;50.056;8.678;2023-05-03T03:50:40;101332.47;;;6.83;100.00
5413;BME280;2729;50.056;8.678;2023-05-03T03:53:06;101334.97;;;6.67;100.00
5413;BME280;2729;50.056;8.678;2023-05-03T03:55:38;101331.47;;;6.65;100.00
5413;BME280;2729;50.056;8.678;2023-05-03T03:58:04;101331.44;;;6.62;100.00
5413;BME280;2729;50.056;8.678;2023-05-03T04:00:30;101322.72;;;6.53;100.00
5413;BME280;2729;50.056;8.678;2023-05-03T04:03:04;101322.69;;;6.47;100.00
5413;BME280;2729;50.056;8.678;2023-05-03T04:05:33;101333.88;;;6.41;100.00
5413;BME280;2729;50.056;8.678;2023-05-03T04:08:00;101327.78;;;6.39;100.00
5413;BME280;2729;50.056;8.678;2023-05-03T04:10:28;101330.44;;;6.45;100.00
5413;BME280;2729;50.056;8.678;2023-05-03T04:12:54;101334.78;;;6.46;100.00
5413;BME280;2729;50.056;8.678;2023-05-03T04:15:21;101341.44;;;6.21;100.00
5413;BME280;2729;50.056;8.678;2023-05-03T04:17:47;101350.25;;;6.37;100.00
5413;BME280;2729;50.056;8.678;2023-05-03T04:20:14;101355.50;;;6.43;100.00
5413;BME280;2729;50.056;8.678;2023-05-03T04:22:44;101356.25;;;6.33;100.00
5413;BME280;2729;50.056;8.678;2023-05-03T04:25:12;101356.31;;;6.40;100.00
5413;BME280;2729;50.056;8.678;2023-05-03T04:27:39;101357.28;;;6.50;100.00
5413;BME280;2729;50.056;8.678;2023-05-03T04:30:06;101359.84;;;6.45;100.00
5413;BME280;2729;50.056;8.678;2023-05-03T04:32:33;101353.72;;;6.37;100.00
5413;BME280;2729;50.056;8.678;2023-05-03T04:35:08;101350.44;;;6.60;100.00
5413;BME280;2729;50.056;8.678;2023-05-03T04:37:37;101353.13;;;6.69;100.00
5413;BME280;2729;50.056;8.678;2023-05-03T04:40:05;101360.84;;;6.61;100.00
5413;BME280;2729;50.056;8.678;2023-05-03T04:42:36;101362.63;;;6.67;100.00
5413;BME280;2729;50.056;8.678;2023-05-03T04:45:02;101363.69;;;6.92;100.00
5413;BME280;2729;50.056;8.678;2023-05-03T04:47:32;101368.09;;;7.05;100.00
5413;BME280;2729;50.056;8.678;2023-05-03T04:49:58;101368.09;;;7.05;100.00
5413;BME280;2729;50.056;8.678;2023-05-03T04:52:24;101368.91;;;6.95;100.00
5413;BME280;2729;50.056;8.678;2023-05-03T04:54:52;101374.97;;;6.97;100.00
5413;BME280;2729;50.056;8.678;2023-05-03T04:57:19;101373.31;;;7.08;100.00
5413;BME280;2729;50.056;8.678;2023-05-03T04:59:45;101368.22;;;7.23;100.00
5413;BME280;2729;50.056;8.678;2023-05-03T05:02:11;101369.00;;;7.07;100.00
5413;BME280;2729;50.056;8.678;2023-05-03T05:04:37;101363.13;;;7.38;100.00
5413;BME280;2729;50.056;8.678;2023-05-03T05:07:04;101359.69;;;7.46;100.00
5413;BME280;2729;50.056;8.678;2023-05-03T05:09:32;101358.84;;;7.50;100.00
5413;BME280;2729;50.056;8.678;2023-05-03T05:12:00;101363.22;;;7.57;100.00
5413;BME280;2729;50.056;8.678;2023-05-03T05:14:32;101370.97;;;7.48;100.00
5413;BME280;2729;50.056;8.678;2023-05-03T05:16:59;101362.44;;;7.73;100.00
5413;BME280;2729;50.056;8.678;2023-05-03T05:19:25;101362.53;;;7.90;100.00
5413;BME280;2729;50.056;8.678;2023-05-03T05:21:51;101361.66;;;7.86;100.00
5413;BME280;2729;50.056;8.678;2023-05-03T05:24:19;101365.97;;;7.87;100.00
5413;BME280;2729;50.056;8.678;2023-05-03T05:26:46;101360.84;;;8.09;100.00
5413;BME280;2729;50.056;8.678;2023-05-03T05:29:14;101367.78;;;8.06;100.00
5413;BME280;2729;50.056;8.678;2023-05-03T05:31:40;101373.91;;;8.27;100.00
5413;BME280;2729;50.056;8.678;2023-05-03T05:34:07;101373.03;;;8.32;100.00
5413;BME280;2729;50.056;8.678;2023-05-03T05:36:34;101368.75;;;8.42;100.00
5413;BME280;2729;50.056;8.678;2023-05-03T05:39:01;101367.91;;;8.54;100.00
5413;BME280;2729;50.056;8.678;2023-05-03T05:41:28;101367.03;;;8.53;100.00
5413;BME280;2729;50.056;8.678;2023-05-03T05:43:54;101361.84;;;8.47;100.00
5413;BME280;2729;50.056;8.678;2023-05-03T05:46:21;101360.91;;;8.31;100.00
5413;BME280;2729;50.056;8.678;2023-05-03T05:48:48;101363.50;;;8.30;100.00
5413;BME280;2729;50.056;8.678;2023-05-03T05:51:16;101358.38;;;8.82;100.00
5413;BME280;2729;50.056;8.678;2023-05-03T05:53:42;101357.50;;;8.72;100.00
5413;BME280;2729;50.056;8.678;2023-05-03T05:56:08;101364.44;;;8.55;100.00
5413;BME280;2729;50.056;8.678;2023-05-03T05:58:35;101357.50;;;8.66;100.00
5413;BME280;2729;50.056;8.678;2023-05-03T06:01:02;101357.50;;;8.63;100.00
5413;BME280;2729;50.056;8.678;2023-05-03T06:03:32;101362.72;;;8.80;100.00
5413;BME280;2729;50.056;8.678;2023-05-03T06:06:01;101356.59;;;9.16;100.00
5413;BME280;2729;50.056;8.678;2023-05-03T06:08:27;101358.38;;;8.94;100.00
5413;BME280;2729;50.056;8.678;2023-05-03T06:10:53;101368.78;;;8.88;100.00
5413;BME280;2729;50.056;8.678;2023-05-03T06:13:20;101366.19;;;8.91;100.00
5413;BME280;2729;50.056;8.678;2023-05-03T06:15:47;101361.81;;;9.22;100.00
5413;BME280;2729;50.056;8.678;2023-05-03T06:18:13;101351.38;;;9.29;100.00
5413;BME280;2729;50.056;8.678;2023-05-03T06:20:39;101351.28;;;9.60;100.00
5413;BME280;2729;50.056;8.678;2023-05-03T06:23:05;101351.19;;;9.84;100.00
5413;BME280;2729;50.056;8.678;2023-05-03T06:25:31;101340.81;;;9.69;100.00
5413;BME280;2729;50.056;8.678;2023-05-03T06:27:57;101336.47;;;9.71;99.41
5413;BME280;2729;50.056;8.678;2023-05-03T06:30:28;101338.91;;;10.05;100.00
5413;BME280;2729;50.056;8.678;2023-05-03T06:32:58;101346.00;;;9.72;97.92
5413;BME280;2729;50.056;8.678;2023-05-03T06:35:23;101353.78;;;9.83;100.00
5413;BME280;2729;50.056;8.678;2023-05-03T06:37:49;101359.00;;;9.83;94.30
5413;BME280;2729;50.056;8.678;2023-05-03T06:40:16;101368.50;;;9.97;97.71
5413;BME280;2729;50.056;8.678;2023-05-03T06:42:43;101375.47;;;9.94;95.41
5413;BME280;2729;50.056;8.678;2023-05-03T06:45:17;101368.50;;;9.94;93.27
5413;BME280;2729;50.056;8.678;2023-05-03T06:47:44;101368.53;;;9.91;94.74
5413;BME280;2729;50.056;8.678;2023-05-03T06:50:10;101367.53;;;10.17;95.42
5413;BME280;2729;50.056;8.678;2023-05-03T06:52:37;101370.09;;;10.29;93.01
5413;BME280;2729;50.056;8.678;2023-05-03T06:55:03;101356.13;;;10.41;90.56
5413;BME280;2729;50.056;8.678;2023-05-03T06:57:29;101363.09;;;10.40;91.74
5413;BME280;2729;50.056;8.678;2023-05-03T06:59:55;101354.28;;;10.55;89.83
5413;BME280;2729;50.056;8.678;2023-05-03T07:02:21;101347.16;;;10.75;89.35
5413;BME280;2729;50.056;8.678;2023-05-03T07:04:47;101352.31;;;10.83;88.81
5413;BME280;2729;50.056;8.678;2023-05-03T07:07:13;101351.47;;;10.81;88.26
5413;BME280;2729;50.056;8.678;2023-05-03T07:09:40;101349.66;;;10.90;89.20
5413;BME280;2729;50.056;8.678;2023-05-03T07:12:06;101342.06;;;10.61;86.17
5413;BME280;2729;50.056;8.678;2023-05-03T07:14:32;101337.75;;;10.57;85.49
5413;BME280;2729;50.056;8.678;2023-05-03T07:16:58;101338.25;;;10.99;86.20
5413;BME280;2729;50.056;8.678;2023-05-03T07:19:24;101332.66;;;11.34;86.15
5413;BME280;2729;50.056;8.678;2023-05-03T07:21:50;101331.56;;;11.55;85.22
5413;BME280;2729;50.056;8.678;2023-05-03T07:24:16;101341.09;;;11.59;83.71
5413;BME280;2729;50.056;8.678;2023-05-03T07:26:42;101338.78;;;11.32;84.73
5413;BME280;2729;50.056;8.678;2023-05-03T07:29:08;101342.31;;;11.27;83.13
5413;BME280;2729;50.056;8.678;2023-05-03T07:31:34;101341.22;;;11.47;82.35
5413;BME280;2729;50.056;8.678;2023-05-03T07:34:01;101336.59;;;11.69;81.90
5413;BME280;2729;50.056;8.678;2023-05-03T07:36:27;101348.94;;;11.57;82.06
5413;BME280;2729;50.056;8.678;2023-05-03T07:38:53;101333.19;;;11.64;83.15
5413;BME280;2729;50.056;8.678;2023-05-03T07:41:19;101341.06;;;11.62;82.00
5413;BME280;2729;50.056;8.678;2023-05-03T07:43:44;101343.66;;;11.62;81.13
5413;BME280;2729;50.056;8.678;2023-05-03T07:46:10;101345.09;;;11.89;80.42
5413;BME280;2729;50.056;8.678;2023-05-03T07:48:36;101340.06;;;11.71;81.30
5413;BME280;2729;50.056;8.678;2023-05-03T07:51:03;101327.50;;;12.02;81.23
5413;BME280;2729;50.056;8.678;2023-05-03T07:53:30;101324.53;;;12.26;81.72
5413;BME280;2729;50.056;8.678;2023-05-03T07:55:56;101334.72;;;12.44;80.41
5413;BME280;2729;50.056;8.678;2023-05-03T07:58:22;101330.53;;;12.33;79.22
5413;BME280;2729;50.056;8.678;2023-05-03T08:00:48;101332.16;;;12.40;77.92
5413;BME280;2729;50.056;8.678;2023-05-03T08:03:14;101331.97;;;12.52;78.33
5413;BME280;2729;50.056;8.678;2023-05-03T08:05:40;101326.31;;;12.78;78.65
5413;BME280;2729;50.056;8.678;2023-05-03T08:08:06;101323.59;;;12.82;77.23
5413;BME280;2729;50.056;8.678;2023-05-03T08:10:32;101320.69;;;12.48;77.74
5413;BME280;2729;50.056;8.678;2023-05-03T08:13:04;101324.84;;;12.60;79.83
5413;BME280;2729;50.056;8.678;2023-05-03T08:15:31;101316.41;;;12.94;76.74
5413;BME280;2729;50.056;8.678;2023-05-03T08:17:57;101316.59;;;12.83;76.47
5413;BME280;2729;50.056;8.678;2023-05-03T08:20:23;101308.41;;;13.04;75.42
5413;BME280;2729;50.056;8.678;2023-05-03T08:22:52;101315.97;;;12.70;76.79
5413;BME280;2729;50.056;8.678;2023-05-03T08:25:24;101310.75;;;13.19;77.48
5413;BME280;2729;50.056;8.678;2023-05-03T08:27:53;101309.59;;;12.85;77.43
5413;BME280;2729;50.056;8.678;2023-05-03T08:30:20;101309.03;;;13.18;78.46
5413;BME280;2729;50.056;8.678;2023-05-03T08:32:46;101316.72;;;13.28;77.90
5413;BME280;2729;50.056;8.678;2023-05-03T08:35:14;101309.28;;;13.03;75.67
5413;BME280;2729;50.056;8.678;2023-05-03T08:37:41;101309.34;;;13.00;76.46
5413;BME280;2729;50.056;8.678;2023-05-03T08:40:08;101317.91;;;13.10;76.94
5413;BME280;2729;50.056;8.678;2023-05-03T08:42:41;101309.97;;;13.59;77.88
5413;BME280;2729;50.056;8.678;2023-05-03T08:45:09;101317.06;;;13.54;77.97
5413;BME280;2729;50.056;8.678;2023-05-03T08:47:37;101313.50;;;13.58;76.14
5413;BME280;2729;50.056;8.678;2023-05-03T08:50:06;101310.09;;;13.53;74.69
5413;BME280;2729;50.056;8.678;2023-05-03T08:52:33;101324.53;;;13.74;76.78
5413;BME280;2729;50.056;8.678;2023-05-03T08:54:59;101316.78;;;13.68;74.62
5413;BME280;2729;50.056;8.678;2023-05-03T08:57:26;101311.38;;;13.75;75.12
5413;BME280;2729;50.056;8.678;2023-05-03T08:59:52;101311.84;;;13.94;75.92
5413;BME280;2729;50.056;8.678;2023-05-03T09:02:21;101316.00;;;14.43;73.69
5413;BME280;2729;50.056;8.678;2023-05-03T09:04:47;101307.59;;;14.27;70.38
5413;BME280;2729;50.056;8.678;2023-05-03T09:07:13;101309.66;;;14.52;72.61
5413;BME280;2729;50.056;8.678;2023-05-03T09:09:42;101313.44;;;14.75;71.19
5413;BME280;2729;50.056;8.678;2023-05-03T09:12:08;101318.84;;;14.69;72.60
5413;BME280;2729;50.056;8.678;2023-05-03T09:14:41;101314.22;;;14.79;69.41
5413;BME280;2729;50.056;8.678;2023-05-03T09:17:16;101309.22;;;15.02;68.54
5413;BME280;2729;50.056;8.678;2023-05-03T09:19:55;101309.34;;;14.98;69.92
5413;BME280;2729;50.056;8.678;2023-05-03T09:22:31;101311.59;;;14.79;70.23
5413;BME280;2729;50.056;8.678;2023-05-03T09:24:59;101309.63;;;14.87;66.90
5413;BME280;2729;50.056;8.678;2023-05-03T09:27:26;101317.16;;;14.67;68.51
5413;BME280;2729;50.056;8.678;2023-05-03T09:29:53;101310.09;;;14.69;66.83
5413;BME280;2729;50.056;8.678;2023-05-03T09:32:20;101296.28;;;14.95;69.76
5413;BME280;2729;50.056;8.678;2023-05-03T09:34:47;101298.59;;;15.07;67.65
5413;BME280;2729;50.056;8.678;2023-05-03T09:37:13;101302.97;;;15.06;67.13
5413;BME280;2729;50.056;8.678;2023-05-03T09:39:40;101295.84;;;15.11;64.68
5413;BME280;2729;50.056;8.678;2023-05-03T09:42:11;101281.56;;;14.88;64.99
5413;BME280;2729;50.056;8.678;2023-05-03T09:44:48;101284.94;;;15.25;66.37
5413;BME280;2729;50.056;8.678;2023-05-03T09:47:16;101287.13;;;15.09;63.86
5413;BME280;2729;50.056;8.678;2023-05-03T09:49:43;101275.06;;;15.33;64.36
5413;BME280;2729;50.056;8.678;2023-05-03T09:52:09;101270.00;;;15.57;65.30
5413;BME280;2729;50.056;8.678;2023-05-03T09:54:36;101276.44;;;15.78;63.15
5413;BME280;2729;50.056;8.678;2023-05-03T09:57:03;101277.06;;;15.55;62.18
5413;BME280;2729;50.056;8.678;2023-05-03T09:59:31;101277.59;;;15.97;66.50
5413;BME280;2729;50.056;8.678;2023-05-03T10:02:00;101267.09;;;15.67;61.94
5413;BME280;2729;50.056;8.678;2023-05-03T10:04:37;101260.31;;;15.28;60.86
5413;BME280;2729;50.056;8.678;2023-05-03T10:07:07;101258.25;;;15.39;61.62
5413;BME280;2729;50.056;8.678;2023-05-03T10:09:37;101266.16;;;15.37;60.38
5413;BME280;2729;50.056;8.678;2023-05-03T10:12:08;101256.81;;;15.58;58.85
5413;BME280;2729;50.056;8.678;2023-05-03T10:14:39;101248.34;;;15.78;59.71
5413;BME280;2729;50.056;8.678;2023-05-03T10:17:19;101246.91;;;16.24;61.21
5413;BME280;2729;50.056;8.678;2023-05-03T10:19:51;101254.44;;;16.08;59.59
5413;BME280;2729;50.056;8.678;2023-05-03T10:22:17;101243.31;;;15.70;59.36
5413;BME280;2729;50.056;8.678;2023-05-03T10:27:21;101238.44;;;16.14;58.40
5413;BME280;2729;50.056;8.678;2023-05-03T10:29:50;101235.47;;;15.97;60.21
5413;BME280;2729;50.056;8.678;2023-05-03T10:32:33;101241.56;;;16.25;58.64
5413;BME280;2729;50.056;8.678;2023-05-03T10:35:07;101236.03;;;16.59;58.19
5413;BME280;2729;50.056;8.678;2023-05-03T10:37:34;101243.03;;;16.07;58.09
5413;BME280;2729;50.056;8.678;2023-05-03T10:40:08;101240.25;;;16.12;57.73
5413;BME280;2729;50.056;8.678;2023-05-03T10:42:36;101242.47;;;16.51;57.15
5413;BME280;2729;50.056;8.678;2023-05-03T10:45:03;101241.84;;;16.95;57.48
5413;BME280;2729;50.056;8.678;2023-05-03T10:47:29;101235.38;;;16.79;54.95
5413;BME280;2729;50.056;8.678;2023-05-03T10:55:08;101240.56;;;16.56;53.68
5413;BME280;2729;50.056;8.678;2023-05-03T10:57:36;101235.84;;;17.15;55.17
5413;BME280;2729;50.056;8.678;2023-05-03T11:00:04;101232.94;;;16.98;54.23
5413;BME280;2729;50.056;8.678;2023-05-03T11:02:38;101237.38;;;16.46;53.93
5413;BME280;2729;50.056;8.678;2023-05-03T11:05:10;101236.19;;;16.55;53.36
5413;BME280;2729;50.056;8.678;2023-05-03T11:07:37;101228.13;;;16.86;52.92
5413;BME280;2729;50.056;8.678;2023-05-03T11:10:16;101235.94;;;17.12;55.13
5413;BME280;2729;50.056;8.678;2023-05-03T11:12:42;101218.81;;;17.24;52.15
5413;BME280;2729;50.056;8.678;2023-05-03T11:15:09;101217.19;;;17.20;51.60
5413;BME280;2729;50.056;8.678;2023-05-03T11:17:37;101214.44;;;16.99;51.76
5413;BME280;2729;50.056;8.678;2023-05-03T11:20:06;101205.25;;;17.10;50.63
5413;BME280;2729;50.056;8.678;2023-05-03T11:22:36;101199.16;;;17.54;51.69
5413;BME280;2729;50.056;8.678;2023-05-03T11:25:02;101200.88;;;17.55;51.84
5413;BME280;2729;50.056;8.678;2023-05-03T11:27:28;101198.53;;;17.48;50.49
5413;BME280;2729;50.056;8.678;2023-05-03T11:29:54;101196.13;;;18.09;51.15
5413;BME280;2729;50.056;8.678;2023-05-03T11:32:26;101190.56;;;18.37;51.33
5413;BME280;2729;50.056;8.678;2023-05-03T11:34:52;101186.53;;;18.06;50.00
5413;BME280;2729;50.056;8.678;2023-05-03T11:37:18;101189.78;;;18.35;50.52
5413;BME280;2729;50.056;8.678;2023-05-03T11:39:44;101193.06;;;18.61;50.43
5413;BME280;2729;50.056;8.678;2023-05-03T11:42:12;101185.06;;;18.63;49.01
5413;BME280;2729;50.056;8.678;2023-05-03T11:44:38;101181.53;;;18.42;47.94
5413;BME280;2729;50.056;8.678;2023-05-03T11:47:04;101193.13;;;17.96;48.95
5413;BME280;2729;50.056;8.678;2023-05-03T11:49:30;101184.78;;;17.85;47.71
5413;BME280;2729;50.056;8.678;2023-05-03T11:51:56;101190.56;;;18.37;48.33
5413;BME280;2729;50.056;8.678;2023-05-03T11:54:22;101180.38;;;18.70;47.45
5413;BME280;2729;50.056;8.678;2023-05-03T11:56:49;101174.59;;;18.60;47.35
5413;BME280;2729;50.056;8.678;2023-05-03T11:59:15;101178.69;;;18.26;47.75
5413;BME280;2729;50.056;8.678;2023-05-03T12:01:41;101177.91;;;17.81;46.94
5413;BME280;2729;50.056;8.678;2023-05-03T12:04:08;101171.63;;;17.83;48.79
5413;BME280;2729;50.056;8.678;2023-05-03T12:06:35;101164.69;;;18.65;48.15
5413;BME280;2729;50.056;8.678;2023-05-03T12:09:01;101167.19;;;18.27;46.22
5413;BME280;2729;50.056;8.678;2023-05-03T12:11:28;101158.06;;;18.35;46.14
5413;BME280;2729;50.056;8.678;2023-05-03T12:13:58;101141.41;;;18.53;48.20
5413;BME280;2729;50.056;8.678;2023-05-03T12:16:25;101153.09;;;18.47;45.60
5413;BME280;2729;50.056;8.678;2023-05-03T12:18:52;101153.41;;;19.01;47.66
5413;BME280;2729;50.056;8.678;2023-05-03T12:21:21;101154.41;;;19.17;47.97
5413;BME280;2729;50.056;8.678;2023-05-03T12:23:47;101135.44;;;19.07;44.85
5413;BME280;2729;50.056;8.678;2023-05-03T12:26:17;101145.41;;;18.63;44.75
5413;BME280;2729;50.056;8.678;2023-05-03T12:28:47;101143.47;;;19.06;44.90
5413;BME280;2729;50.056;8.678;2023-05-03T12:31:13;101143.91;;;19.53;45.49
5413;BME280;2729;50.056;8.678;2023-05-03T12:33:40;101135.63;;;19.78;45.00
5413;BME280;2729;50.056;8.678;2023-05-03T12:36:06;101133.69;;;19.81;44.23
5413;BME280;2729;50.056;8.678;2023-05-03T12:38:33;101132.22;;;19.38;44.09
5413;BME280;2729;50.056;8.678;2023-05-03T12:40:59;101138.31;;;19.03;44.11
5413;BME280;2729;50.056;8.678;2023-05-03T12:43:25;101121.91;;;19.51;43.57
5413;BME280;2729;50.056;8.678;2023-05-03T12:45:51;101134.50;;;19.46;44.58
5413;BME280;2729;50.056;8.678;2023-05-03T12:48:17;101120.50;;;19.80;44.03
5413;BME280;2729;50.056;8.678;2023-05-03T12:50:43;101114.69;;;19.54;44.64
5413;BME280;2729;50.056;8.678;2023-05-03T12:53:09;101115.88;;;19.47;44.13
5413;BME280;2729;50.056;8.678;2023-05-03T12:55:37;101117.06;;;19.78;44.81
5413;BME280;2729;50.056;8.678;2023-05-03T12:58:03;101124.56;;;20.04;45.79
5413;BME280;2729;50.056;8.678;2023-05-03T13:00:30;101112.09;;;20.41;44.24
5413;BME280;2729;50.056;8.678;2023-05-03T13:02:55;101109.75;;;20.52;43.42
5413;BME280;2729;50.056;8.678;2023-05-03T13:05:22;101106.84;;;19.70;43.80
5413;BME280;2729;50.056;8.678;2023-05-03T13:07:48;101098.22;;;20.18;45.39
5413;BME280;2729;50.056;8.678;2023-05-03T13:10:14;101093.16;;;19.97;43.33
5413;BME280;2729;50.056;8.678;2023-05-03T13:12:41;101100.41;;;20.10;45.38
5413;BME280;2729;50.056;8.678;2023-05-03T13:15:07;101097.88;;;20.59;45.28
5413;BME280;2729;50.056;8.678;2023-05-03T13:17:33;101076.69;;;20.42;43.12
5413;BME280;2729;50.056;8.678;2023-05-03T13:19:59;101081.75;;;20.29;42.98
5413;BME280;2729;50.056;8.678;2023-05-03T13:22:26;101077.63;;;20.23;43.30